createdAt,value
2024-02-17T00:01:18.820Z,34.34
2024-02-17T00:03:47.486Z,34.12
2024-02-17T00:06:16.136Z,34.48
2024-02-17T00:08:44.656Z,34.81
2024-02-17T00:11:13.356Z,35.01
2024-02-17T00:13:44.040Z,34.65
2024-02-17T00:16:12.609Z,37.41
2024-02-17T00:18:41.306Z,35.89
2024-02-17T00:21:09.884Z,35.49
2024-02-17T00:23:38.397Z,35.24
2024-02-17T00:26:06.920Z,36.01
2024-02-17T00:28:35.436Z,36.92
2024-02-17T00:31:04.019Z,35.21
2024-02-17T00:33:32.575Z,35.09
2024-02-17T00:36:01.153Z,35.64
2024-02-17T00:38:29.683Z,35.33
2024-02-17T00:40:58.228Z,35.21
2024-02-17T00:43:26.658Z,35.09
2024-02-17T00:45:55.317Z,35.28
2024-02-17T00:48:24.640Z,34.95
2024-02-17T00:50:58.139Z,35.03
2024-02-17T00:53:33.556Z,34.33
2024-02-17T00:56:02.034Z,34.90
2024-02-17T00:58:30.575Z,34.43
2024-02-17T01:00:59.171Z,34.35
2024-02-17T01:03:27.876Z,34.42
2024-02-17T01:05:56.650Z,34.46
2024-02-17T01:08:25.237Z,34.53
2024-02-17T01:10:53.809Z,34.24
2024-02-17T01:13:22.531Z,34.21
2024-02-17T01:15:51.175Z,35.07
2024-02-17T01:18:19.889Z,34.91
2024-02-17T01:20:48.510Z,34.81
2024-02-17T01:23:16.984Z,34.63
2024-02-17T01:25:45.535Z,34.53
2024-02-17T01:28:14.074Z,34.20
2024-02-17T01:30:42.833Z,35.98
2024-02-17T01:33:11.411Z,35.61
2024-02-17T01:35:39.969Z,35.76
2024-02-17T01:38:09.463Z,35.33
2024-02-17T01:40:38.484Z,34.57
2024-02-17T01:43:09.912Z,34.65
2024-02-17T01:45:38.533Z,35.11
2024-02-17T01:48:07.633Z,34.88
2024-02-17T01:50:36.271Z,34.68
2024-02-17T01:53:05.354Z,35.02
2024-02-17T01:55:34.171Z,35.77
2024-02-17T01:58:03.025Z,35.81
2024-02-17T02:00:32.745Z,35.71
2024-02-17T02:03:01.756Z,36.77
2024-02-17T02:05:30.417Z,36.00
2024-02-17T02:07:58.952Z,35.56
2024-02-17T02:10:27.466Z,36.49
2024-02-17T02:12:56.128Z,35.38
2024-02-17T02:15:29.960Z,34.85
2024-02-17T02:18:05.987Z,34.75
2024-02-17T02:20:37.912Z,34.99
2024-02-17T02:23:06.568Z,34.27
2024-02-17T02:25:35.162Z,35.61
2024-02-17T02:28:03.943Z,35.20
2024-02-17T02:30:33.413Z,35.68
2024-02-17T02:33:02.107Z,36.91
2024-02-17T02:35:30.720Z,36.61
2024-02-17T02:37:59.198Z,36.00
2024-02-17T02:40:27.742Z,36.46
2024-02-17T02:42:57.803Z,36.90
2024-02-17T02:45:26.585Z,35.73
2024-02-17T02:47:55.292Z,35.42
2024-02-17T02:50:23.869Z,35.19
2024-02-17T02:52:52.510Z,35.36
2024-02-17T02:55:20.995Z,35.09
2024-02-17T02:57:49.661Z,35.23
2024-02-17T03:00:18.954Z,35.20
2024-02-17T03:02:47.628Z,35.82
2024-02-17T03:05:16.138Z,36.25
2024-02-17T03:07:44.788Z,37.99
2024-02-17T03:10:13.475Z,35.81
2024-02-17T03:12:42.008Z,35.40
2024-02-17T03:15:10.791Z,35.24
2024-02-17T03:17:39.300Z,34.99
2024-02-17T03:20:08.473Z,35.87
2024-02-17T03:22:37.145Z,35.71
2024-02-17T03:25:06.063Z,37.12
2024-02-17T03:27:35.837Z,36.03
2024-02-17T03:30:06.301Z,34.95
2024-02-17T03:32:35.401Z,34.96
2024-02-17T03:35:07.741Z,35.50
2024-02-17T03:37:36.326Z,35.35
2024-02-17T03:40:10.065Z,34.87
2024-02-17T03:42:38.681Z,35.37
2024-02-17T03:45:07.614Z,34.85
2024-02-17T03:47:36.122Z,35.29
2024-02-17T03:50:05.207Z,35.53
2024-02-17T03:52:34.321Z,35.16
2024-02-17T03:55:02.942Z,36.63
2024-02-17T03:57:31.570Z,36.12
2024-02-17T04:00:00.352Z,35.12
2024-02-17T04:02:28.817Z,36.91
2024-02-17T04:04:57.277Z,35.52
2024-02-17T04:07:25.984Z,36.06
2024-02-17T04:09:54.709Z,36.04
2024-02-17T04:12:23.404Z,35.89
2024-02-17T04:14:52.507Z,36.02
2024-02-17T04:17:21.087Z,35.25
2024-02-17T04:19:49.813Z,35.04
2024-02-17T04:22:18.539Z,34.72
2024-02-17T04:24:47.229Z,35.03
2024-02-17T04:27:15.968Z,34.78
2024-02-17T04:29:44.564Z,36.43
2024-02-17T04:32:13.034Z,35.61
2024-02-17T04:34:41.769Z,35.07
2024-02-17T04:37:10.525Z,34.82
2024-02-17T04:39:39.093Z,35.18
2024-02-17T04:42:07.710Z,35.02
2024-02-17T04:44:36.737Z,35.31
2024-02-17T04:47:05.249Z,34.52
2024-02-17T04:49:35.326Z,34.57
2024-02-17T04:52:04.030Z,34.16
2024-02-17T04:54:32.614Z,34.56
2024-02-17T04:57:01.086Z,34.60
2024-02-17T04:59:30.240Z,34.30
2024-02-17T05:01:58.797Z,33.97
2024-02-17T05:04:27.420Z,33.88
2024-02-17T05:06:56.622Z,33.53
2024-02-17T05:09:26.288Z,33.82
2024-02-17T05:11:56.794Z,33.85
2024-02-17T05:14:26.413Z,33.86
2024-02-17T05:16:54.863Z,34.14
2024-02-17T05:19:23.750Z,35.12
2024-02-17T05:21:53.372Z,34.91
2024-02-17T05:24:21.925Z,34.89
2024-02-17T05:26:50.762Z,34.76
2024-02-17T05:29:19.430Z,35.69
2024-02-17T05:31:47.865Z,35.05
2024-02-17T05:34:18.564Z,34.38
2024-02-17T05:36:47.193Z,34.49
2024-02-17T05:39:15.747Z,36.81
2024-02-17T05:41:44.427Z,35.81
2024-02-17T05:44:12.885Z,36.29
2024-02-17T05:46:41.317Z,35.45
2024-02-17T05:49:10.679Z,35.18
2024-02-17T05:51:39.212Z,35.30
2024-02-17T05:54:08.857Z,35.39
2024-02-17T05:56:37.368Z,34.54
2024-02-17T05:59:05.791Z,34.47
2024-02-17T06:01:34.413Z,35.08
2024-02-17T06:04:03.039Z,34.66
2024-02-17T06:06:31.698Z,34.86
2024-02-17T06:09:00.189Z,34.71
2024-02-17T06:11:28.796Z,34.26
2024-02-17T06:13:58.249Z,34.96
2024-02-17T06:16:30.363Z,37.38
2024-02-17T06:19:17.629Z,35.47
2024-02-17T06:21:46.324Z,35.67
2024-02-17T06:24:14.927Z,35.16
2024-02-17T06:26:44.286Z,34.96
2024-02-17T06:29:12.879Z,35.34
2024-02-17T06:31:43.352Z,35.51
2024-02-17T06:34:13.183Z,35.55
2024-02-17T06:36:44.107Z,35.95
2024-02-17T06:39:13.439Z,36.01
2024-02-17T06:41:41.973Z,35.17
2024-02-17T06:44:10.516Z,35.52
2024-02-17T06:46:39.625Z,37.19
2024-02-17T06:49:08.289Z,35.99
2024-02-17T06:51:37.837Z,36.05
2024-02-17T06:54:06.476Z,36.07
2024-02-17T06:56:35.054Z,36.70
2024-02-17T06:59:03.529Z,35.46
2024-02-17T07:01:32.089Z,34.97
2024-02-17T07:04:01.048Z,34.45
2024-02-17T07:06:29.857Z,34.62
2024-02-17T07:08:58.512Z,35.44
2024-02-17T07:11:27.041Z,34.75
2024-02-17T07:13:55.649Z,34.46
2024-02-17T07:16:24.148Z,34.62
2024-02-17T07:18:52.782Z,34.47
2024-02-17T07:21:21.537Z,34.02
2024-02-17T07:23:50.056Z,34.39
2024-02-17T07:26:18.639Z,34.27
2024-02-17T07:28:48.558Z,34.32
2024-02-17T07:31:18.132Z,34.71
2024-02-17T07:33:48.167Z,34.87
2024-02-17T07:36:17.021Z,35.59
2024-02-17T07:38:45.613Z,35.13
2024-02-17T07:41:14.563Z,34.85
2024-02-17T07:43:42.989Z,35.26
2024-02-17T07:46:11.525Z,35.00
2024-02-17T07:48:40.066Z,35.72
2024-02-17T07:51:08.838Z,36.14
2024-02-17T07:53:38.349Z,35.61
2024-02-17T07:56:09.278Z,35.72
2024-02-17T07:58:38.134Z,35.23
2024-02-17T08:01:06.716Z,36.69
2024-02-17T08:03:35.414Z,35.50
2024-02-17T08:06:04.201Z,34.97
2024-02-17T08:08:33.661Z,35.28
2024-02-17T08:11:02.165Z,34.93
2024-02-17T08:13:31.463Z,34.51
2024-02-17T08:16:00.009Z,34.35
2024-02-17T08:18:28.642Z,34.42
2024-02-17T08:21:02.392Z,34.66
2024-02-17T08:23:30.868Z,35.05
2024-02-17T08:26:04.694Z,35.42
2024-02-17T08:28:33.700Z,34.74
2024-02-17T08:31:02.209Z,34.92
2024-02-17T08:33:31.288Z,34.90
2024-02-17T08:36:00.177Z,35.26
2024-02-17T08:38:28.737Z,35.31
2024-02-17T08:40:57.334Z,35.60
2024-02-17T08:43:25.792Z,34.91
2024-02-17T08:45:54.325Z,34.64
2024-02-17T08:48:23.541Z,34.62
2024-02-17T08:50:52.745Z,35.19
2024-02-17T08:53:21.384Z,34.97
2024-02-17T08:55:49.866Z,35.01
2024-02-17T08:58:18.301Z,35.55
2024-02-17T09:00:47.086Z,35.24
2024-02-17T09:03:15.609Z,34.83
2024-02-17T09:05:45.440Z,35.07
2024-02-17T09:08:13.964Z,35.53
2024-02-17T09:10:42.541Z,34.69
2024-02-17T09:13:10.997Z,34.15
2024-02-17T09:15:39.569Z,35.38
2024-02-17T09:18:08.162Z,35.48
2024-02-17T09:20:36.764Z,34.29
2024-02-17T09:23:06.971Z,34.96
2024-02-17T09:25:36.094Z,34.94
2024-02-17T09:28:05.146Z,35.02
2024-02-17T09:30:35.588Z,34.71
2024-02-17T09:33:04.562Z,35.55
2024-02-17T09:35:33.102Z,35.97
2024-02-17T09:38:01.937Z,35.51
2024-02-17T09:40:30.526Z,35.70
2024-02-17T09:42:59.097Z,36.70
2024-02-17T09:45:28.231Z,35.05
2024-02-17T09:47:59.708Z,35.19
2024-02-17T09:50:29.352Z,34.21
2024-02-17T09:53:02.242Z,34.21
2024-02-17T09:55:32.157Z,34.83
2024-02-17T09:58:00.810Z,34.23
2024-02-17T10:00:29.828Z,34.43
2024-02-17T10:03:01.093Z,35.01
2024-02-17T10:05:30.126Z,34.31
2024-02-17T10:07:58.817Z,34.46
2024-02-17T10:10:27.326Z,34.44
2024-02-17T10:13:02.458Z,34.86
2024-02-17T10:15:33.433Z,34.24
2024-02-17T10:18:02.182Z,35.35
2024-02-17T10:20:32.485Z,35.68
2024-02-17T10:23:01.146Z,34.54
2024-02-17T10:25:29.985Z,33.98
2024-02-17T10:27:58.896Z,33.92
2024-02-17T10:30:28.363Z,34.24
2024-02-17T10:32:58.414Z,33.93
2024-02-17T10:35:27.302Z,34.27
2024-02-17T10:37:57.922Z,35.12
2024-02-17T10:40:27.466Z,34.85
2024-02-17T10:42:56.047Z,36.42
2024-02-17T10:45:24.695Z,34.75
2024-02-17T10:48:02.549Z,36.70
2024-02-17T10:50:33.661Z,35.37
2024-02-17T10:53:08.799Z,36.33
2024-02-17T10:55:40.087Z,35.44
2024-02-17T10:58:15.575Z,34.63
2024-02-17T11:00:50.898Z,34.31
2024-02-17T11:03:29.622Z,37.29
2024-02-17T11:06:06.772Z,37.78
2024-02-17T11:08:35.981Z,36.01
2024-02-17T11:11:23.921Z,36.54
2024-02-17T11:13:53.974Z,35.00
2024-02-17T11:16:24.803Z,35.31
2024-02-17T11:18:57.051Z,34.37
2024-02-17T11:21:32.223Z,36.33
2024-02-17T11:24:01.391Z,36.66
2024-02-17T11:26:37.476Z,36.33
2024-02-17T11:29:32.602Z,35.59
2024-02-17T11:32:04.398Z,34.03
2024-02-17T11:34:34.650Z,33.98
2024-02-17T11:37:06.369Z,35.28
2024-02-17T11:39:35.358Z,33.97
2024-02-17T11:42:05.959Z,33.72
2024-02-17T11:44:34.776Z,33.72
2024-02-17T11:47:03.409Z,33.60
2024-02-17T11:49:38.306Z,33.42
2024-02-17T11:52:08.325Z,33.97
2024-02-17T11:54:38.460Z,34.71
2024-02-17T11:57:07.970Z,34.76
2024-02-17T11:59:36.760Z,34.86
2024-02-17T12:02:07.318Z,35.92
2024-02-17T12:04:39.266Z,33.91
2024-02-17T12:07:08.029Z,34.60
2024-02-17T12:09:37.816Z,33.97
2024-02-17T12:12:07.431Z,33.10
2024-02-17T12:14:35.898Z,33.34
2024-02-17T12:17:04.807Z,35.34
2024-02-17T12:19:35.012Z,33.46
2024-02-17T12:22:04.087Z,33.10
2024-02-17T12:24:33.328Z,32.90
2024-02-17T12:27:03.253Z,32.47
2024-02-17T12:29:31.855Z,33.22
2024-02-17T12:32:02.198Z,32.99
2024-02-17T12:34:33.442Z,32.55
2024-02-17T12:37:05.612Z,31.97
2024-02-17T12:39:34.544Z,32.34
2024-02-17T12:42:04.906Z,32.84
2024-02-17T12:44:33.695Z,33.86
2024-02-17T12:47:13.618Z,32.53
2024-02-17T12:49:43.231Z,32.18
2024-02-17T12:52:13.261Z,34.17
2024-02-17T12:54:41.926Z,33.33
2024-02-17T12:57:10.607Z,32.79
2024-02-17T12:59:40.917Z,32.06
2024-02-17T13:02:09.493Z,32.70
2024-02-17T13:04:38.078Z,33.27
2024-02-17T13:07:06.654Z,33.13
2024-02-17T13:09:36.050Z,32.93
2024-02-17T13:12:05.119Z,34.76
2024-02-17T13:14:34.390Z,35.53
2024-02-17T13:17:05.594Z,33.82
2024-02-17T13:19:34.688Z,34.07
2024-02-17T13:22:03.423Z,32.50
2024-02-17T13:24:32.146Z,33.51
2024-02-17T13:27:00.764Z,33.21
2024-02-17T13:29:29.482Z,33.04
2024-02-17T13:31:57.926Z,32.52
2024-02-17T13:34:26.932Z,33.23
2024-02-17T13:36:55.586Z,32.07
2024-02-17T13:39:24.270Z,32.69
2024-02-17T13:41:52.743Z,32.64
2024-02-17T13:44:21.317Z,32.30
2024-02-17T13:46:50.157Z,32.45
2024-02-17T13:49:18.690Z,31.49
2024-02-17T13:51:47.500Z,32.63
2024-02-17T13:54:16.173Z,32.51
2024-02-17T13:56:44.627Z,32.50
2024-02-17T13:59:13.023Z,32.38
2024-02-17T14:01:41.555Z,31.92
2024-02-17T14:04:10.474Z,31.79
2024-02-17T14:06:39.007Z,33.18
2024-02-17T14:09:07.749Z,33.83
2024-02-17T14:11:36.395Z,32.20
2024-02-17T14:14:04.911Z,32.03
2024-02-17T14:16:33.337Z,31.89
2024-02-17T14:19:03.217Z,31.85
2024-02-17T14:21:32.013Z,31.52
2024-02-17T14:24:01.165Z,31.15
2024-02-17T14:26:29.608Z,31.47
2024-02-17T14:28:58.437Z,31.59
2024-02-17T14:31:28.940Z,31.25
2024-02-17T14:33:57.603Z,32.33
2024-02-17T14:36:26.290Z,31.47
2024-02-17T14:38:57.100Z,31.32
2024-02-17T14:41:25.643Z,31.71
2024-02-17T14:43:54.084Z,31.31
2024-02-17T14:46:22.564Z,30.73
2024-02-17T14:48:51.390Z,32.20
2024-02-17T14:51:20.064Z,31.25
2024-02-17T14:53:48.901Z,31.49
2024-02-17T14:56:17.439Z,31.61
2024-02-17T14:58:45.842Z,31.02
2024-02-17T15:01:18.453Z,30.86
2024-02-17T15:03:50.043Z,30.48
2024-02-17T15:06:18.922Z,31.70
2024-02-17T15:08:47.533Z,31.11
2024-02-17T15:11:18.857Z,30.63
2024-02-17T15:13:49.084Z,30.78
2024-02-17T15:16:18.189Z,30.42
2024-02-17T15:18:46.893Z,30.04
2024-02-17T15:21:15.560Z,30.43
2024-02-17T15:23:47.131Z,30.08
2024-02-17T15:26:17.340Z,30.15
2024-02-17T15:28:45.966Z,30.10
2024-02-17T15:31:14.950Z,29.95
2024-02-17T15:33:43.623Z,29.83
2024-02-17T15:36:12.894Z,29.49
2024-02-17T15:38:41.452Z,30.45
2024-02-17T15:41:09.958Z,29.60
2024-02-17T15:43:38.453Z,30.02
2024-02-17T15:46:08.077Z,29.84
2024-02-17T15:48:38.199Z,29.73
2024-02-17T15:51:07.453Z,29.82
2024-02-17T15:53:36.863Z,29.69
2024-02-17T15:56:12.863Z,29.93
2024-02-17T15:58:41.778Z,29.45
2024-02-17T16:01:10.464Z,29.57
2024-02-17T16:03:39.535Z,29.48
2024-02-17T16:06:08.486Z,29.54
2024-02-17T16:08:39.003Z,29.60
2024-02-17T16:11:13.187Z,29.44
2024-02-17T16:13:45.740Z,29.36
2024-02-17T16:16:16.507Z,29.39
2024-02-17T16:18:46.836Z,29.65
2024-02-17T16:21:16.051Z,29.61
2024-02-17T16:23:45.362Z,29.32
2024-02-17T16:26:14.014Z,29.61
2024-02-17T16:28:43.555Z,29.54
2024-02-17T16:31:12.133Z,29.67
2024-02-17T16:33:40.785Z,29.76
2024-02-17T16:36:09.379Z,29.80
2024-02-17T16:38:37.965Z,29.82
2024-02-17T16:41:06.446Z,29.76
2024-02-17T16:43:34.979Z,29.88
2024-02-17T16:46:04.602Z,29.80
2024-02-17T16:48:33.301Z,29.63
2024-02-17T16:51:02.633Z,29.64
2024-02-17T16:53:31.189Z,29.88
2024-02-17T16:55:59.654Z,29.62
2024-02-17T16:58:28.220Z,29.70
2024-02-17T17:00:57.166Z,29.59
2024-02-17T17:03:25.758Z,29.54
2024-02-17T17:05:54.224Z,29.89
2024-02-17T17:08:22.772Z,30.09
2024-02-17T17:10:51.903Z,30.07
2024-02-17T17:13:20.839Z,29.81
2024-02-17T17:15:49.909Z,30.28
2024-02-17T17:18:18.682Z,29.90
2024-02-17T17:20:47.576Z,30.02
2024-02-17T17:23:16.146Z,30.15
2024-02-17T17:25:46.089Z,30.06
2024-02-17T17:28:14.868Z,30.32
2024-02-17T17:30:43.546Z,30.12
2024-02-17T17:33:12.213Z,30.36
2024-02-17T17:35:40.855Z,30.15
2024-02-17T17:38:09.359Z,30.00
2024-02-17T17:40:37.795Z,30.32
2024-02-17T17:43:07.530Z,30.27
2024-02-17T17:45:38.251Z,30.24
2024-02-17T17:48:07.541Z,30.76
2024-02-17T17:50:36.111Z,30.67
2024-02-17T17:53:10.688Z,30.74
2024-02-17T17:55:39.420Z,30.51
2024-02-17T17:58:07.959Z,30.60
2024-02-17T18:00:36.496Z,30.38
2024-02-17T18:03:05.017Z,30.49
2024-02-17T18:05:33.805Z,30.44
2024-02-17T18:08:02.308Z,30.59
2024-02-17T18:10:32.851Z,30.41
2024-02-17T18:13:02.849Z,30.51
2024-02-17T18:15:31.394Z,30.40
2024-02-17T18:18:00.401Z,30.53
2024-02-17T18:20:29.403Z,30.66
2024-02-17T18:22:57.865Z,30.75
2024-02-17T18:25:26.405Z,30.71
2024-02-17T18:27:55.001Z,30.77
2024-02-17T18:30:23.664Z,30.62
2024-02-17T18:32:52.414Z,30.63
2024-02-17T18:35:20.982Z,30.58
2024-02-17T18:37:49.513Z,30.78
2024-02-17T18:40:18.078Z,30.83
2024-02-17T18:42:46.524Z,30.61
2024-02-17T18:45:15.210Z,30.93
2024-02-17T18:47:43.780Z,30.87
2024-02-17T18:50:12.454Z,31.06
2024-02-17T18:52:41.102Z,30.99
2024-02-17T18:55:10.842Z,30.87
2024-02-17T18:57:39.952Z,30.88
2024-02-17T19:00:09.283Z,30.73
2024-02-17T19:02:37.777Z,30.79
2024-02-17T19:05:06.963Z,31.33
2024-02-17T19:07:35.471Z,31.13
2024-02-17T19:10:04.655Z,30.95
2024-02-17T19:12:33.242Z,31.00
2024-02-17T19:15:02.752Z,30.94
2024-02-17T19:17:31.267Z,31.00
2024-02-17T19:19:59.921Z,31.07
2024-02-17T19:22:28.762Z,30.77
2024-02-17T19:24:57.852Z,30.93
2024-02-17T19:27:26.554Z,31.39
2024-02-17T19:29:55.523Z,31.37
2024-02-17T19:32:23.971Z,31.12
2024-02-17T19:34:52.580Z,31.59
2024-02-17T19:37:21.079Z,31.55
2024-02-17T19:39:49.550Z,31.64
2024-02-17T19:42:18.149Z,31.19
2024-02-17T19:44:46.782Z,31.43
2024-02-17T19:47:16.832Z,31.23
2024-02-17T19:49:45.353Z,30.94
2024-02-17T19:52:13.795Z,31.00
2024-02-17T19:54:43.082Z,31.02
2024-02-17T19:57:11.607Z,31.08
2024-02-17T19:59:40.141Z,31.50
2024-02-17T20:02:08.643Z,31.50
2024-02-17T20:04:38.809Z,31.10
2024-02-17T20:07:07.672Z,30.95
2024-02-17T20:09:36.908Z,30.98
2024-02-17T20:12:06.684Z,30.93
2024-02-17T20:14:35.644Z,30.72
2024-02-17T20:17:05.060Z,30.41
2024-02-17T20:19:33.689Z,30.80
2024-02-17T20:22:04.214Z,30.85
2024-02-17T20:24:32.805Z,30.89
2024-02-17T20:27:01.315Z,31.36
2024-02-17T20:29:34.774Z,31.69
2024-02-17T20:32:03.560Z,30.93
2024-02-17T20:34:32.249Z,31.68
2024-02-17T20:37:02.385Z,31.30
2024-02-17T20:39:32.087Z,30.80
2024-02-17T20:42:03.531Z,30.71
2024-02-17T20:44:36.122Z,30.71
2024-02-17T20:47:08.735Z,30.52
2024-02-17T20:49:37.408Z,30.38
2024-02-17T20:52:06.455Z,30.50
2024-02-17T20:54:34.987Z,30.45
2024-02-17T20:57:03.965Z,30.40
2024-02-17T20:59:32.391Z,30.38
2024-02-17T21:02:00.886Z,30.29
2024-02-17T21:04:31.151Z,30.21
2024-02-17T21:06:59.831Z,30.48
2024-02-17T21:09:29.247Z,30.49
2024-02-17T21:11:58.173Z,30.43
2024-02-17T21:14:26.603Z,30.43
2024-02-17T21:16:55.003Z,30.20
2024-02-17T21:19:25.222Z,30.55
2024-02-17T21:21:54.032Z,30.48
2024-02-17T21:24:22.584Z,30.31
2024-02-17T21:26:51.108Z,30.18
2024-02-17T21:29:19.550Z,30.30
2024-02-17T21:31:48.266Z,30.60
2024-02-17T21:34:17.145Z,30.56
2024-02-17T21:36:45.850Z,30.61
2024-02-17T21:39:19.382Z,30.32
2024-02-17T21:41:48.155Z,30.33
2024-02-17T21:44:17.077Z,30.33
2024-02-17T21:46:46.007Z,30.69
2024-02-17T21:49:14.541Z,30.45
2024-02-17T21:51:43.182Z,30.29
2024-02-17T21:54:11.925Z,30.30
2024-02-17T21:56:40.547Z,30.62
2024-02-17T21:59:09.483Z,30.25
2024-02-17T22:01:38.462Z,30.42
2024-02-17T22:04:07.355Z,30.98
2024-02-17T22:06:35.946Z,30.95
2024-02-17T22:09:05.550Z,31.02
2024-02-17T22:11:34.053Z,30.55
2024-02-17T22:14:02.598Z,31.00
2024-02-17T22:16:31.102Z,31.20
2024-02-17T22:18:59.585Z,30.75
2024-02-17T22:21:29.137Z,30.65
2024-02-17T22:23:57.776Z,31.08
2024-02-17T22:26:26.420Z,31.09
2024-02-17T22:28:54.840Z,31.74
2024-02-17T22:31:29.248Z,31.89
2024-02-17T22:33:57.855Z,31.00
2024-02-17T22:36:26.515Z,30.93
2024-02-17T22:38:55.377Z,31.18
2024-02-17T22:41:24.273Z,31.06
2024-02-17T22:43:52.769Z,30.66
2024-02-17T22:46:21.494Z,30.48
2024-02-17T22:48:50.011Z,30.61
2024-02-17T22:51:19.138Z,30.62
2024-02-17T22:53:47.723Z,30.39
2024-02-17T22:56:17.210Z,30.46
2024-02-17T22:58:46.074Z,30.62
2024-02-17T23:01:15.107Z,30.61
2024-02-17T23:03:50.083Z,30.84
2024-02-17T23:06:18.755Z,31.46
2024-02-17T23:08:49.310Z,30.78
2024-02-17T23:11:17.950Z,31.00
2024-02-17T23:13:46.501Z,30.72
2024-02-17T23:16:15.094Z,30.66
2024-02-17T23:18:43.774Z,30.58
2024-02-17T23:21:12.422Z,31.29
2024-02-17T23:23:40.899Z,30.80
2024-02-17T23:26:09.417Z,30.54
2024-02-17T23:28:37.869Z,30.73
2024-02-17T23:31:06.531Z,31.03
2024-02-17T23:33:35.236Z,31.23
2024-02-17T23:36:04.046Z,30.80
2024-02-17T23:38:32.466Z,30.51
2024-02-17T23:41:02.268Z,31.38
2024-02-17T23:43:30.757Z,31.42
2024-02-17T23:45:59.287Z,31.80
2024-02-17T23:48:27.820Z,30.85
2024-02-17T23:50:56.381Z,31.21
2024-02-17T23:53:24.836Z,30.75
2024-02-17T23:55:53.458Z,30.63
2024-02-17T23:58:22.602Z,30.68
